Time;durP1;ratioP1;P1;durP2;ratioP2;P2;SDS_P1;SDS_P2;PMS_P1;PMS_P2;Temp;Humidity;BMP_temperature;BMP_pressure;BME280_temperature;BME280_humidity;BME280_pressure;Samples;Min_cycle;Max_cycle;Signal;HPM_P1;HPM_P2
2022/12/09 00:01:56;;;;;;;25.70;20.02;;;2.30;99.90;;;;;;4979604;28;20500;-76
2022/12/09 00:04:21;;;;;;;23.25;18.23;;;2.30;99.90;;;;;;4995705;28;20037;-76
2022/12/09 00:06:47;;;;;;;25.85;19.67;;;2.30;99.90;;;;;;4996079;28;20046;-76
2022/12/09 00:09:14;;;;;;;26.13;20.08;;;2.30;99.90;;;;;;4994369;28;20058;-76
2022/12/09 00:11:40;;;;;;;30.17;20.73;;;2.30;99.90;;;;;;4995455;28;20042;-76
2022/12/09 00:14:07;;;;;;;28.25;20.33;;;2.30;99.90;;;;;;5011597;28;20034;-76
2022/12/09 00:16:33;;;;;;;29.73;20.13;;;2.30;99.90;;;;;;5012184;28;20037;-76
2022/12/09 00:18:59;;;;;;;29.50;20.15;;;2.30;99.90;;;;;;4994358;28;20034;-76
2022/12/09 00:21:31;;;;;;;27.45;19.92;;;2.30;99.90;;;;;;5011625;28;20555;-76
2022/12/09 00:23:58;;;;;;;26.37;19.53;;;2.40;99.90;;;;;;4983096;28;20046;-76
2022/12/09 00:26:25;;;;;;;28.70;20.95;;;2.30;99.90;;;;;;4976782;28;20042;-75
2022/12/09 00:28:53;;;;;;;28.60;21.15;;;2.30;99.90;;;;;;4992915;28;20038;-76
2022/12/09 00:31:25;;;;;;;31.13;21.25;;;2.30;99.90;;;;;;4998951;28;20042;-76
2022/12/09 00:33:53;;;;;;;24.57;19.77;;;2.30;99.90;;;;;;4977391;28;20076;-76
2022/12/09 00:36:20;;;;;;;25.80;20.00;;;2.30;99.90;;;;;;4996053;28;20365;-76
2022/12/09 00:38:47;;;;;;;28.77;20.33;;;2.30;99.90;;;;;;4994425;28;20030;-76
2022/12/09 00:41:13;;;;;;;26.85;20.10;;;2.30;99.90;;;;;;4995471;28;20099;-76
2022/12/09 00:43:39;;;;;;;27.38;19.75;;;2.30;99.90;;;;;;4986844;28;20086;-76
2022/12/09 00:46:05;;;;;;;24.58;19.25;;;2.30;99.90;;;;;;4994003;28;20050;-76
2022/12/09 00:48:33;;;;;;;27.38;19.13;;;2.30;99.90;;;;;;4990944;28;20049;-76
2022/12/09 00:51:00;;;;;;;25.25;18.95;;;2.20;99.90;;;;;;4961409;28;20039;-76
2022/12/09 00:53:26;;;;;;;27.58;19.75;;;2.20;99.90;;;;;;4960081;28;20401;-76
2022/12/09 00:55:51;;;;;;;26.50;18.45;;;2.30;99.90;;;;;;4972658;28;20030;-76
2022/12/09 00:58:17;;;;;;;25.70;18.83;;;2.30;99.90;;;;;;4985392;28;20574;-76
2022/12/09 01:00:46;;;;;;;21.85;17.15;;;2.20;99.90;;;;;;4992563;28;20115;-76
2022/12/09 01:03:13;;;;;;;20.30;16.00;;;2.20;99.90;;;;;;4992242;28;20477;-76
2022/12/09 01:05:39;;;;;;;21.50;16.38;;;2.30;99.90;;;;;;4992118;28;20093;-76
2022/12/09 01:08:06;;;;;;;19.70;15.85;;;2.20;99.90;;;;;;4981573;28;20038;-76
2022/12/09 01:10:36;;;;;;;19.55;15.27;;;2.20;99.90;;;;;;4976633;28;20042;-76
2022/12/09 01:13:02;;;;;;;17.02;14.27;;;2.20;99.90;;;;;;4995362;28;20034;-76
2022/12/09 01:15:29;;;;;;;17.73;13.30;;;2.20;99.90;;;;;;4995070;28;20041;-76
2022/12/09 01:17:55;;;;;;;17.40;14.55;;;2.20;99.90;;;;;;4994309;28;20053;-77
2022/12/09 01:20:23;;;;;;;19.80;14.75;;;2.20;99.90;;;;;;4977582;28;20041;-76
2022/12/09 01:22:49;;;;;;;20.27;16.67;;;2.20;99.90;;;;;;4990896;28;20042;-76
2022/12/09 01:25:15;;;;;;;21.55;16.00;;;2.20;99.90;;;;;;4985624;28;20095;-76
2022/12/09 01:27:41;;;;;;;20.67;16.08;;;2.20;99.90;;;;;;4986429;28;20038;-76
2022/12/09 01:30:08;;;;;;;21.02;16.73;;;2.20;99.90;;;;;;4993469;28;20124;-76
2022/12/09 01:32:33;;;;;;;20.42;16.60;;;2.20;99.90;;;;;;4994900;28;20042;-76
2022/12/09 01:35:00;;;;;;;20.42;16.42;;;2.20;99.90;;;;;;4984070;28;20397;-76
2022/12/09 01:37:25;;;;;;;23.25;16.85;;;2.30;99.90;;;;;;4983871;28;20121;-75
2022/12/09 01:39:51;;;;;;;21.52;16.92;;;2.20;99.90;;;;;;4990832;28;20465;-76
2022/12/09 01:42:20;;;;;;;20.65;16.60;;;2.20;99.90;;;;;;4959484;28;20065;-76
2022/12/09 01:45:20;;;;;;;20.33;16.45;;;2.20;99.90;;;;;;4958778;28;20038;-76
2022/12/09 01:48:13;;;;;;;18.83;15.63;;;2.20;99.90;;;;;;4984936;28;20033;-76
2022/12/09 01:50:53;;;;;;;19.60;15.27;;;2.20;99.90;;;;;;4964345;28;20141;-76
2022/12/09 01:53:26;;;;;;;19.52;15.65;;;2.10;99.90;;;;;;4994079;28;20038;-76
2022/12/09 01:55:54;;;;;;;20.63;16.17;;;2.10;99.90;;;;;;4994455;28;20103;-76
2022/12/09 01:58:20;;;;;;;19.00;15.38;;;2.00;99.90;;;;;;4992439;28;20042;-76
2022/12/09 02:00:46;;;;;;;19.20;15.63;;;2.00;99.90;;;;;;4974584;28;20140;-76
2022/12/09 02:03:12;;;;;;;20.00;15.35;;;1.80;99.90;;;;;;4984437;28;20105;-75
2022/12/09 02:05:38;;;;;;;20.50;15.20;;;1.80;99.90;;;;;;4992293;28;20497;-76
2022/12/09 02:08:15;;;;;;;18.80;15.73;;;1.80;99.90;;;;;;4994547;28;20129;-76
2022/12/09 02:10:53;;;;;;;21.65;16.25;;;1.70;99.90;;;;;;4982557;28;20401;-76
2022/12/09 02:13:30;;;;;;;20.58;16.20;;;1.60;99.90;;;;;;4974766;28;20543;-76
2022/12/09 02:15:58;;;;;;;22.38;17.42;;;1.60;99.90;;;;;;4971317;28;20068;-76
2022/12/09 02:18:37;;;;;;;20.00;16.85;;;1.50;99.90;;;;;;4992607;28;20045;-76
2022/12/09 02:21:15;;;;;;;22.63;16.92;;;1.60;99.90;;;;;;4959155;28;20409;-75
2022/12/09 02:23:50;;;;;;;21.38;17.27;;;1.60;99.90;;;;;;4972892;28;20042;-76
2022/12/09 02:26:42;;;;;;;21.25;16.90;;;1.50;99.90;;;;;;4994315;28;20403;-76
2022/12/09 02:29:40;;;;;;;21.58;16.30;;;1.50;99.90;;;;;;4983025;28;20407;-76
2022/12/09 02:32:08;;;;;;;19.77;16.02;;;1.50;99.90;;;;;;4973717;28;20057;-76
2022/12/09 02:34:41;;;;;;;23.10;16.80;;;1.50;99.90;;;;;;4993484;28;20399;-76
2022/12/09 02:37:15;;;;;;;;;;;1.60;99.90;;;;;;4991209;28;20126;-76
2022/12/09 02:40:08;;;;;;;23.20;16.80;;;1.60;99.90;;;;;;4978917;28;19948;-76
2022/12/09 02:42:35;;;;;;;24.17;17.55;;;1.60;99.90;;;;;;4995678;28;20073;-76
2022/12/09 02:45:06;;;;;;;23.23;17.90;;;1.60;99.90;;;;;;4995962;28;20381;-77
2022/12/09 02:47:37;;;;;;;21.33;16.02;;;1.60;99.90;;;;;;4993097;28;20056;-76
2022/12/09 02:50:08;;;;;;;21.52;15.85;;;1.50;99.90;;;;;;4993937;28;20125;-76
2022/12/09 02:52:34;;;;;;;19.77;15.00;;;1.60;99.90;;;;;;4992683;28;20133;-76
2022/12/09 02:55:03;;;;;;;21.95;16.77;;;1.60;99.90;;;;;;4994146;28;20042;-76
2022/12/09 02:57:30;;;;;;;20.20;15.95;;;1.60;99.90;;;;;;4993654;28;20046;-76
2022/12/09 02:59:56;;;;;;;23.23;16.73;;;1.60;99.90;;;;;;4998697;28;20100;-76
2022/12/09 03:02:26;;;;;;;20.83;15.88;;;1.50;99.90;;;;;;4990896;28;20516;-76
2022/12/09 03:05:02;;;;;;;25.63;16.95;;;1.50;99.90;;;;;;4994739;28;20030;-76
2022/12/09 03:07:39;;;;;;;27.60;18.70;;;1.50;99.90;;;;;;4994465;28;20045;-77
2022/12/09 03:10:19;;;;;;;24.45;18.65;;;1.50;99.90;;;;;;4995284;28;20045;-77
2022/12/09 03:12:52;;;;;;;24.25;19.20;;;1.50;99.90;;;;;;4981317;28;20583;-76
2022/12/09 03:15:21;;;;;;;23.70;17.83;;;1.50;99.90;;;;;;4981280;28;20100;-76
2022/12/09 03:17:50;;;;;;;23.55;17.23;;;1.50;99.90;;;;;;4980283;28;20046;-76
2022/12/09 03:20:23;;;;;;;21.67;15.95;;;1.40;99.90;;;;;;4995288;28;20077;-76
2022/12/09 03:22:52;;;;;;;21.92;17.23;;;1.50;99.90;;;;;;4996385;28;20095;-76
2022/12/09 03:25:23;;;;;;;20.92;15.48;;;1.50;99.90;;;;;;4981274;28;20072;-76
2022/12/09 03:28:04;;;;;;;20.92;15.50;;;1.40;99.90;;;;;;4980533;28;20041;-76
2022/12/09 03:30:32;;;;;;;21.77;15.73;;;1.40;99.90;;;;;;4994310;28;20046;-76
2022/12/09 03:32:59;;;;;;;22.92;17.25;;;1.40;99.90;;;;;;4995730;28;20030;-76
2022/12/09 03:35:31;;;;;;;24.95;17.90;;;1.40;99.90;;;;;;4994623;28;20038;-76
2022/12/09 03:38:00;;;;;;;27.63;18.88;;;1.40;99.90;;;;;;4995924;28;20395;-76
2022/12/09 03:40:28;;;;;;;27.02;19.45;;;1.40;99.90;;;;;;4996015;28;20099;-76
2022/12/09 03:43:26;;;;;;;27.65;19.15;;;1.40;99.90;;;;;;4992139;28;20401;-76
2022/12/09 03:45:53;;;;;;;25.83;19.15;;;1.40;99.90;;;;;;4987936;28;20522;-76
2022/12/09 03:48:20;;;;;;;28.90;19.27;;;1.50;99.90;;;;;;4979395;28;20074;-76
2022/12/09 03:50:58;;;;;;;29.38;19.67;;;1.50;99.90;;;;;;4980329;28;20130;-76
2022/12/09 03:53:35;;;;;;;33.35;21.20;;;1.50;99.90;;;;;;4996676;28;20061;-76
2022/12/09 03:56:09;;;;;;;25.17;17.60;;;1.50;99.90;;;;;;4995261;28;20083;-76
2022/12/09 03:58:36;;;;;;;23.52;16.35;;;1.50;99.90;;;;;;4993256;28;20037;-76
2022/12/09 04:01:04;;;;;;;23.20;17.10;;;1.50;99.90;;;;;;4990269;28;20046;-76
2022/12/09 04:03:31;;;;;;;23.05;17.83;;;1.50;99.90;;;;;;4996494;28;20046;-76
2022/12/09 04:05:57;;;;;;;21.88;15.85;;;1.50;99.90;;;;;;4996649;28;20037;-76
2022/12/09 04:08:23;;;;;;;22.15;16.55;;;1.50;99.90;;;;;;4992508;28;20045;-76
2022/12/09 04:10:48;;;;;;;24.25;15.88;;;1.50;99.90;;;;;;4972274;28;20485;-76
2022/12/09 04:13:14;;;;;;;24.67;18.38;;;1.50;99.90;;;;;;4995350;28;20041;-76
2022/12/09 04:15:39;;;;;;;25.15;19.52;;;1.50;99.90;;;;;;4995707;28;20030;-76
2022/12/09 04:18:05;;;;;;;24.27;17.98;;;1.50;99.90;;;;;;4996516;28;20486;-76
2022/12/09 04:20:31;;;;;;;26.60;18.35;;;1.50;99.90;;;;;;4992187;28;20105;-76
2022/12/09 04:22:56;;;;;;;27.25;19.23;;;1.50;99.90;;;;;;4990216;28;20034;-76
2022/12/09 04:25:22;;;;;;;30.30;20.25;;;1.50;99.90;;;;;;4984428;28;20389;-76
2022/12/09 04:27:48;;;;;;;27.23;18.98;;;1.50;99.90;;;;;;4996337;28;20326;-76
2022/12/09 04:30:13;;;;;;;28.48;19.92;;;1.50;99.90;;;;;;4994445;28;20049;-76
2022/12/09 04:32:39;;;;;;;28.08;20.25;;;1.50;99.90;;;;;;4995712;28;20194;-76
2022/12/09 04:35:05;;;;;;;28.50;21.00;;;1.50;99.90;;;;;;4991387;28;20042;-76
2022/12/09 04:37:31;;;;;;;28.48;20.63;;;1.40;99.90;;;;;;4993764;28;20038;-76
2022/12/09 04:39:57;;;;;;;31.33;21.40;;;1.40;99.90;;;;;;4978281;28;20499;-76
2022/12/09 04:42:23;;;;;;;29.63;21.25;;;1.40;99.90;;;;;;4996018;28;20037;-76
2022/12/09 04:44:49;;;;;;;29.15;21.23;;;1.40;99.90;;;;;;4995602;28;20491;-76
2022/12/09 04:47:14;;;;;;;29.00;20.77;;;1.30;99.90;;;;;;4994489;28;20087;-76
2022/12/09 04:49:40;;;;;;;31.95;20.73;;;1.30;99.90;;;;;;4985473;28;20042;-76
2022/12/09 04:52:06;;;;;;;30.67;21.02;;;1.30;99.90;;;;;;4995351;28;20054;-76
2022/12/09 04:54:32;;;;;;;32.58;20.98;;;1.30;99.90;;;;;;4995253;28;20053;-76
2022/12/09 04:56:58;;;;;;;29.92;21.92;;;1.30;99.90;;;;;;4979095;28;20069;-76
2022/12/09 04:59:23;;;;;;;31.65;22.17;;;1.20;99.90;;;;;;4993359;28;20042;-76
2022/12/09 05:01:49;;;;;;;30.52;21.63;;;1.20;99.90;;;;;;4994296;28;20042;-76
2022/12/09 05:04:15;;;;;;;32.45;21.17;;;1.20;99.90;;;;;;4993937;28;20045;-76
2022/12/09 05:06:40;;;;;;;34.35;23.38;;;1.00;99.90;;;;;;5011513;28;20048;-76
2022/12/09 05:09:11;;;;;;;42.88;23.38;;;1.00;99.90;;;;;;4988284;28;20048;-76
2022/12/09 05:11:36;;;;;;;35.47;23.13;;;0.90;99.90;;;;;;4993484;28;20034;-76
2022/12/09 05:14:02;;;;;;;39.13;24.75;;;0.90;99.90;;;;;;4993691;28;20077;-76
2022/12/09 05:16:28;;;;;;;37.75;24.77;;;0.90;99.90;;;;;;4994047;28;20045;-76
2022/12/09 05:18:53;;;;;;;39.75;25.73;;;0.80;99.90;;;;;;4994242;28;20040;-76
2022/12/09 05:21:20;;;;;;;43.33;27.75;;;0.80;99.90;;;;;;4994929;28;20132;-76
2022/12/09 05:23:46;;;;;;;40.88;26.42;;;0.80;99.90;;;;;;4994240;28;20403;-76
2022/12/09 05:26:15;;;;;;;40.90;27.52;;;0.80;99.90;;;;;;4994372;28;20088;-76
2022/12/09 05:28:41;;;;;;;44.47;27.98;;;0.70;99.90;;;;;;4985208;28;20408;-77
2022/12/09 05:31:11;;;;;;;44.45;27.98;;;0.70;99.90;;;;;;4978678;28;20049;-76
2022/12/09 05:33:37;;;;;;;44.33;27.55;;;0.70;99.90;;;;;;4987411;28;20121;-77
2022/12/09 05:36:03;;;;;;;50.58;28.83;;;0.70;99.90;;;;;;5009251;28;20037;-76
2022/12/09 05:38:29;;;;;;;53.33;28.63;;;0.70;99.90;;;;;;4996046;28;20099;-77
2022/12/09 05:40:58;;;;;;;53.75;30.00;;;0.60;99.90;;;;;;4995319;28;20045;-76
2022/12/09 05:43:24;;;;;;;51.28;29.42;;;0.60;99.90;;;;;;4992367;28;20037;-76
2022/12/09 05:45:50;;;;;;;45.47;28.45;;;0.50;99.90;;;;;;4984348;28;20052;-77
2022/12/09 05:48:15;;;;;;;54.90;29.40;;;0.50;99.90;;;;;;4984141;28;20370;-77
2022/12/09 05:50:41;;;;;;;44.83;27.33;;;0.40;99.90;;;;;;4976059;28;20096;-77
2022/12/09 05:53:07;;;;;;;42.20;25.13;;;0.40;99.90;;;;;;4986578;28;20037;-76
2022/12/09 05:55:32;;;;;;;47.92;28.33;;;0.30;99.90;;;;;;4989952;28;20497;-77
2022/12/09 05:57:58;;;;;;;52.05;31.00;;;0.20;99.90;;;;;;4994264;28;20063;-77
2022/12/09 06:00:24;;;;;;;57.83;31.35;;;0.20;99.90;;;;;;5005585;28;20061;-77
2022/12/09 06:02:50;;;;;;;71.93;31.67;;;0.10;99.90;;;;;;4994649;28;20060;-78
2022/12/09 06:05:16;;;;;;;61.30;32.53;;;0.20;99.90;;;;;;4987908;28;20026;-76
2022/12/09 06:07:42;;;;;;;55.83;32.00;;;0.00;99.90;;;;;;4985276;28;20062;-78
2022/12/09 06:10:11;;;;;;;58.33;32.22;;;0.00;99.90;;;;;;4995769;28;20034;-79
2022/12/09 06:12:36;;;;;;;61.08;32.20;;;-0.10;99.90;;;;;;4995755;28;20130;-79
2022/12/09 06:15:02;;;;;;;59.05;31.10;;;-0.10;99.90;;;;;;4997387;28;20061;-79
2022/12/09 06:17:28;;;;;;;79.00;34.20;;;-0.10;99.90;;;;;;4985310;28;20038;-78
2022/12/09 06:20:06;;;;;;;62.25;34.60;;;-0.20;99.90;;;;;;4988547;28;20072;-79
2022/12/09 06:22:50;;;;;;;;;;;;;;;;;;;;;
2022/12/09 06:25:21;;;;;;;69.85;36.63;;;-0.30;99.90;;;;;;4983228;28;20089;-78
2022/12/09 06:28:07;;;;;;;77.18;37.03;;;-0.30;99.90;;;;;;4974968;28;20152;-78
2022/12/09 06:30:55;;;;;;;90.47;38.17;;;-0.30;99.90;;;;;;4980516;28;20409;-78
2022/12/09 06:33:34;;;;;;;77.60;36.17;;;-0.40;99.90;;;;;;4997076;28;20044;-78
2022/12/09 06:36:43;;;;;;;71.45;33.80;;;-0.40;99.90;;;;;;4985314;28;20054;-78
2022/12/09 06:39:12;;;;;;;87.38;35.08;;;-0.50;99.90;;;;;;4980762;28;20522;-78
2022/12/09 06:41:46;;;;;;;94.13;36.10;;;-0.50;99.90;;;;;;4997363;28;20044;-78
2022/12/09 06:44:17;;;;;;;88.95;36.35;;;-0.60;99.90;;;;;;4997156;28;20034;-78
2022/12/09 06:49:40;;;;;;;34.85;14.80;;;-0.70;99.90;;;;;;4988968;28;20050;-78
2022/12/09 06:52:12;;;;;;;79.22;34.55;;;-0.70;99.90;;;;;;4993263;28;20065;-78
2022/12/09 06:54:45;;;;;;;31.70;15.45;;;-0.80;99.90;;;;;;4980429;28;20038;-79
2022/12/09 06:57:47;;;;;;;75.70;33.28;;;-0.90;99.90;;;;;;4998413;28;20129;-79
2022/12/09 07:00:28;;;;;;;68.72;32.55;;;-0.90;99.90;;;;;;4999361;28;20481;-80
2022/12/09 07:03:34;;;;;;;61.50;33.30;;;-0.90;99.90;;;;;;5006170;28;20038;-80
2022/12/09 07:06:38;;;;;;;33.40;15.52;;;-1.00;99.90;;;;;;4987625;28;20049;-80
2022/12/09 07:15:26;;;;;;;78.65;33.92;;;-1.10;99.90;;;;;;5001768;28;20116;-80
2022/12/09 07:17:54;;;;;;;68.18;30.45;;;-1.10;99.90;;;;;;5005724;28;20443;-81
2022/12/09 07:20:29;;;;;;;67.20;33.60;;;-1.10;99.90;;;;;;4973943;28;20050;-81
2022/12/09 07:23:15;;;;;;;67.72;32.90;;;-1.10;99.90;;;;;;4996047;28;20117;-80
2022/12/09 07:26:12;;;;;;;74.78;34.92;;;-1.10;99.90;;;;;;4996775;28;20034;-81
2022/12/09 07:29:07;;;;;;;79.95;35.83;;;-1.10;99.90;;;;;;4974702;28;20503;-81
2022/12/09 07:32:03;;;;;;;94.85;37.38;;;-1.20;99.90;;;;;;4981788;28;20052;-80
2022/12/09 07:39:20;;;;;;;100.00;41.80;;;-1.20;99.90;;;;;;4975609;28;20043;-80
2022/12/09 07:42:56;;;;;;;42.70;17.00;;;-1.10;99.90;;;;;;4983813;28;20100;-80
2022/12/09 07:49:30;;;;;;;;;;;;;;;;;;;;;
2022/12/09 07:52:57;;;;;;;214.85;55.03;;;-0.80;99.90;;;;;;5000250;28;20587;-80
2022/12/09 07:56:02;;;;;;;274.52;59.47;;;-0.70;99.90;;;;;;4995232;28;20089;-80
2022/12/09 07:59:03;;;;;;;297.15;58.53;;;-0.60;99.90;;;;;;4978266;28;20548;-80
2022/12/09 08:02:49;;;;;;;272.58;57.95;;;-0.50;99.90;;;;;;4984225;28;20042;-80
2022/12/09 08:06:26;;;;;;;290.23;62.03;;;-0.30;99.90;;;;;;4989254;28;20046;-79
2022/12/09 08:10:02;;;;;;;;;;;;;;;;;;;;;
2022/12/09 08:18:51;;;;;;;316.23;61.47;;;0.00;99.90;;;;;;5111248;23;20054;-79
2022/12/09 08:21:45;;;;;;;;;;;0.00;99.90;;;;;;4995195;28;20057;-78
2022/12/09 08:24:37;;;;;;;216.30;53.45;;;0.00;99.90;;;;;;4967734;28;19917;-79
2022/12/09 08:27:15;;;;;;;506.38;68.63;;;0.10;99.90;;;;;;4973406;28;20133;-78
2022/12/09 08:30:07;;;;;;;389.45;61.65;;;0.20;99.90;;;;;;4981131;28;20054;-79
2022/12/09 08:33:06;;;;;;;516.83;72.55;;;0.20;99.90;;;;;;4980051;28;20046;-79
2022/12/09 08:35:53;;;;;;;369.42;59.42;;;0.20;99.90;;;;;;4979906;28;20041;-79
2022/12/09 08:38:30;;;;;;;392.40;59.70;;;0.20;99.90;;;;;;4979947;28;20121;-78
2022/12/09 08:41:21;;;;;;;421.50;62.08;;;0.20;99.90;;;;;;4986949;28;20429;-79
2022/12/09 08:44:04;;;;;;;452.38;64.65;;;0.30;99.90;;;;;;4970577;28;20044;-78
2022/12/09 08:46:41;;;;;;;399.75;60.45;;;0.30;99.90;;;;;;4979121;28;20509;-78
2022/12/09 08:49:16;;;;;;;337.77;56.30;;;0.30;99.90;;;;;;4971335;28;20046;-78
2022/12/09 08:51:54;;;;;;;247.38;49.90;;;0.30;99.90;;;;;;4979282;28;20042;-78
2022/12/09 08:54:23;;;;;;;246.85;48.80;;;0.30;99.90;;;;;;4979565;28;20048;-78
2022/12/09 08:56:53;;;;;;;213.30;46.08;;;0.40;99.90;;;;;;4978524;28;20038;-78
2022/12/09 08:59:27;;;;;;;407.85;56.05;;;0.40;99.90;;;;;;4971007;28;20117;-78
2022/12/09 09:02:03;;;;;;;299.13;50.15;;;0.50;99.90;;;;;;4978805;28;20357;-78
2022/12/09 09:04:30;;;;;;;345.98;54.08;;;0.50;99.90;;;;;;4970812;28;20046;-78
2022/12/09 09:07:02;;;;;;;193.85;46.13;;;0.50;99.90;;;;;;4979147;28;20133;-78
2022/12/09 09:09:28;;;;;;;411.67;56.80;;;0.50;99.90;;;;;;4978219;28;20050;-77
2022/12/09 09:12:02;;;;;;;259.92;47.47;;;0.60;99.90;;;;;;4971551;28;20037;-77
2022/12/09 09:14:30;;;;;;;392.10;58.78;;;0.60;99.90;;;;;;4978735;28;20136;-77
2022/12/09 09:16:58;;;;;;;376.60;54.63;;;0.60;99.90;;;;;;4978517;28;20048;-77
2022/12/09 09:19:30;;;;;;;298.00;48.42;;;0.60;99.90;;;;;;4978764;28;20045;-77
2022/12/09 09:21:59;;;;;;;313.40;50.95;;;0.60;99.90;;;;;;4973827;28;20065;-77
2022/12/09 09:24:25;;;;;;;231.68;44.22;;;0.70;99.90;;;;;;4966999;28;20121;-77
2022/12/09 09:26:55;;;;;;;135.02;37.70;;;0.70;99.90;;;;;;4964964;28;20452;-77
2022/12/09 09:29:23;;;;;;;188.23;41.40;;;0.80;99.90;;;;;;4982578;28;20049;-77
2022/12/09 09:31:52;;;;;;;246.90;45.38;;;0.80;99.90;;;;;;4978489;28;20045;-78
2022/12/09 09:34:19;;;;;;;295.23;48.15;;;0.80;99.90;;;;;;4979179;28;20127;-77
2022/12/09 09:36:48;;;;;;;231.98;43.95;;;0.80;99.90;;;;;;4974626;28;20496;-77
2022/12/09 09:39:21;;;;;;;429.40;55.50;;;0.80;99.90;;;;;;4973164;28;20060;-77
2022/12/09 09:41:56;;;;;;;391.08;53.25;;;0.80;99.90;;;;;;4978432;28;20050;-77
2022/12/09 09:44:48;;;;;;;257.17;49.08;;;0.90;99.90;;;;;;4978871;28;20048;-77
2022/12/09 09:47:19;;;;;;;191.88;43.58;;;0.90;99.90;;;;;;4977934;28;20333;-77
2022/12/09 09:49:55;;;;;;;184.07;42.10;;;0.90;99.90;;;;;;4978446;28;20530;-77
2022/12/09 09:52:23;;;;;;;149.32;38.83;;;0.90;99.90;;;;;;4985411;28;20042;-77
2022/12/09 09:54:52;;;;;;;290.45;47.25;;;1.00;99.90;;;;;;4978108;28;20057;-77
2022/12/09 09:57:44;;;;;;;217.30;43.45;;;0.90;99.90;;;;;;4978148;28;20055;-77
2022/12/09 10:00:36;;;;;;;145.40;42.28;;;1.00;99.90;;;;;;4994807;28;20100;-77
2022/12/09 10:03:20;;;;;;;230.90;44.13;;;1.10;99.90;;;;;;4971849;28;20088;-77
2022/12/09 10:05:55;;;;;;;216.05;42.95;;;1.20;99.90;;;;;;4978204;28;20073;-77
2022/12/09 10:08:57;;;;;;;156.90;40.65;;;1.20;99.90;;;;;;4978066;28;20038;-77
2022/12/09 10:11:31;;;;;;;186.25;42.50;;;1.30;99.90;;;;;;4986369;28;20054;-78
2022/12/09 10:14:31;;;;;;;102.70;38.08;;;1.40;99.90;;;;;;4977969;28;20042;-77
2022/12/09 10:17:09;;;;;;;132.98;39.33;;;1.50;99.90;;;;;;4981611;28;20508;-77
2022/12/09 10:19:41;;;;;;;178.25;41.65;;;1.50;99.90;;;;;;4975796;28;20044;-77
2022/12/09 10:22:24;;;;;;;177.38;41.65;;;1.60;99.90;;;;;;4973575;28;20507;-78
2022/12/09 10:24:57;;;;;;;142.77;38.83;;;1.60;99.90;;;;;;4968867;28;20077;-77
2022/12/09 10:27:49;;;;;;;118.90;36.70;;;1.60;99.90;;;;;;4980404;28;20574;-78
2022/12/09 10:30:18;;;;;;;151.85;38.63;;;1.60;99.90;;;;;;4994040;28;20054;-77
2022/12/09 10:32:54;;;;;;;96.28;35.95;;;1.60;99.90;;;;;;4978429;28;20054;-77
2022/12/09 10:35:27;;;;;;;149.73;37.50;;;1.60;99.90;;;;;;4985086;28;20501;-78
2022/12/09 10:37:57;;;;;;;;;;;1.60;99.90;;;;;;4967316;28;20501;-78
2022/12/09 10:40:35;;;;;;;121.43;41.90;;;1.60;99.90;;;;;;4990770;28;19922;-78
2022/12/09 10:43:42;;;;;;;99.22;42.22;;;1.70;99.90;;;;;;4990886;28;20043;-78
2022/12/09 10:46:17;;;;;;;148.50;54.83;;;1.80;99.90;;;;;;4897007;29;20040;-78
2022/12/09 10:48:46;;;;;;;105.35;51.85;;;1.80;99.90;;;;;;4890871;29;20081;-78
2022/12/09 10:51:18;;;;;;;127.63;51.30;;;1.70;99.90;;;;;;4923213;28;20146;-78
2022/12/09 10:53:55;;;;;;;95.95;46.53;;;1.90;99.90;;;;;;4958215;28;20084;-78
2022/12/09 10:56:38;;;;;;;80.03;43.30;;;1.90;99.90;;;;;;4958973;28;20406;-78
2022/12/09 10:59:34;;;;;;;79.18;41.40;;;1.90;99.90;;;;;;4976803;28;20038;-78
2022/12/09 11:02:23;;;;;;;74.82;40.28;;;1.90;99.90;;;;;;4968516;28;20038;-78
2022/12/09 11:04:54;;;;;;;66.68;39.22;;;1.90;99.90;;;;;;4974055;28;20050;-77
2022/12/09 11:07:25;;;;;;;64.90;38.70;;;1.80;99.90;;;;;;4990543;28;20043;-77
2022/12/09 11:09:57;;;;;;;69.60;40.95;;;2.00;99.90;;;;;;4990577;28;20097;-77
2022/12/09 11:12:26;;;;;;;73.53;41.03;;;2.00;99.90;;;;;;4976157;28;20493;-78
2022/12/09 11:15:01;;;;;;;58.95;37.88;;;2.00;99.90;;;;;;4982625;28;20324;-77
2022/12/09 11:17:31;;;;;;;56.97;35.80;;;2.20;99.90;;;;;;5006881;28;20043;-78
2022/12/09 11:20:18;;;;;;;52.28;32.40;;;2.30;99.90;;;;;;4976522;28;20034;-77
2022/12/09 11:23:11;;;;;;;;;;;;;;;;;;;;;
2022/12/09 11:25:37;;;;;;;52.42;33.42;;;2.60;99.90;;;;;;4995467;28;20038;-77
2022/12/09 11:28:17;;;;;;;55.80;34.95;;;2.70;99.90;;;;;;4980831;28;20447;-77
2022/12/09 11:31:01;;;;;;;49.67;31.92;;;2.80;99.90;;;;;;4997069;28;20042;-78
2022/12/09 11:33:39;;;;;;;47.55;30.60;;;3.00;99.90;;;;;;4971840;28;20081;-77
2022/12/09 11:36:43;;;;;;;44.92;30.95;;;3.20;99.90;;;;;;4988481;28;20116;-77
2022/12/09 11:39:17;;;;;;;44.92;29.50;;;3.40;99.90;;;;;;4977095;28;20046;-77
2022/12/09 11:42:15;;;;;;;44.25;28.48;;;3.50;99.90;;;;;;4977756;28;20050;-77
2022/12/09 11:44:52;;;;;;;44.85;29.83;;;3.60;99.90;;;;;;4961204;28;20133;-77
2022/12/09 11:47:35;;;;;;;41.90;29.58;;;3.80;99.90;;;;;;4981349;28;20403;-77
2022/12/09 11:50:15;;;;;;;39.90;26.98;;;4.00;99.90;;;;;;4981061;28;20045;-77
2022/12/09 11:53:15;;;;;;;40.30;28.20;;;4.10;99.90;;;;;;4980893;28;20124;-77
2022/12/09 11:56:21;;;;;;;37.50;26.67;;;4.20;99.90;;;;;;4980875;28;20046;-77
2022/12/09 11:59:24;;;;;;;36.20;25.60;;;4.20;99.90;;;;;;4973265;28;20546;-78
2022/12/09 12:02:04;;;;;;;34.08;25.08;;;4.10;99.90;;;;;;4939133;28;20079;-77
2022/12/09 12:04:35;;;;;;;34.75;23.38;;;4.10;99.90;;;;;;4977346;28;20564;-77
2022/12/09 12:07:30;;;;;;;30.70;23.48;;;4.20;99.90;;;;;;4980254;28;20169;-78
2022/12/09 12:10:11;;;;;;;33.90;23.65;;;4.10;99.90;;;;;;4980260;28;20500;-78
2022/12/09 12:12:54;;;;;;;33.13;23.75;;;4.20;99.90;;;;;;4964134;28;20069;-78
2022/12/09 12:16:07;;;;;;;31.00;23.60;;;4.30;99.90;;;;;;4979673;28;20531;-77
2022/12/09 12:19:03;;;;;;;30.63;21.85;;;4.30;99.90;;;;;;4993602;28;20139;-77
2022/12/09 12:22:00;;;;;;;29.35;22.17;;;4.30;99.90;;;;;;4996118;28;20080;-78
2022/12/09 12:24:51;;;;;;;31.08;22.88;;;4.30;99.90;;;;;;4996176;28;20046;-78
2022/12/09 12:27:32;;;;;;;29.50;22.73;;;4.40;99.90;;;;;;4971003;28;20508;-78
2022/12/09 12:30:31;;;;;;;29.90;23.13;;;4.30;99.90;;;;;;4996137;28;20056;-78
2022/12/09 12:33:44;;;;;;;30.08;22.60;;;4.40;99.90;;;;;;4984300;28;20054;-77
2022/12/09 12:36:41;;;;;;;28.67;22.23;;;4.10;99.90;;;;;;4971312;28;20058;-78
2022/12/09 12:39:35;;;;;;;27.52;21.75;;;4.00;99.90;;;;;;4966536;28;20103;-77
2022/12/09 12:42:30;;;;;;;31.67;23.17;;;3.90;99.90;;;;;;4958792;28;20046;-77
2022/12/09 12:48:49;;;;;;;27.95;21.40;;;3.90;99.90;;;;;;4975916;28;20101;-77
2022/12/09 12:51:39;;;;;;;26.73;21.00;;;3.90;99.90;;;;;;4976391;28;20046;-77
2022/12/09 12:54:43;;;;;;;27.67;20.70;;;3.90;99.90;;;;;;4995812;28;20085;-78
2022/12/09 12:57:32;;;;;;;24.98;19.67;;;3.80;99.90;;;;;;5011984;28;20038;-77
2022/12/09 13:00:19;;;;;;;27.33;20.88;;;3.80;99.90;;;;;;4974328;28;20069;-77
2022/12/09 13:03:17;;;;;;;26.33;19.90;;;3.80;99.90;;;;;;4986345;28;20048;-77
2022/12/09 13:06:00;;;;;;;27.08;20.73;;;3.90;99.90;;;;;;4971623;28;20081;-77
2022/12/09 13:09:15;;;;;;;26.95;20.00;;;3.90;99.90;;;;;;4988242;28;20413;-77
2022/12/09 13:12:07;;;;;;;26.55;20.02;;;3.80;99.90;;;;;;4978399;28;20076;-77
2022/12/09 13:14:59;;;;;;;25.20;19.55;;;3.70;99.90;;;;;;4978765;28;20085;-77
2022/12/09 13:17:33;;;;;;;24.45;19.40;;;3.60;99.90;;;;;;4969716;28;20046;-77
2022/12/09 13:20:33;;;;;;;27.65;21.63;;;3.50;99.90;;;;;;4978668;28;20049;-77
2022/12/09 13:23:15;;;;;;;26.00;19.85;;;3.40;99.90;;;;;;4978766;28;20057;-77
2022/12/09 13:26:39;;;;;;;25.50;19.90;;;3.40;99.90;;;;;;4975340;28;20121;-77
2022/12/09 13:29:44;;;;;;;25.20;19.25;;;3.30;99.90;;;;;;4991243;28;20088;-77
2022/12/09 13:32:25;;;;;;;28.00;21.17;;;3.30;99.90;;;;;;4994986;28;20129;-77
2022/12/09 13:35:08;;;;;;;24.92;19.63;;;3.20;99.90;;;;;;4995124;28;20041;-77
2022/12/09 13:37:54;;;;;;;28.23;20.58;;;3.20;99.90;;;;;;4991622;28;20045;-77
2022/12/09 13:40:37;;;;;;;28.45;21.13;;;3.20;99.90;;;;;;4967092;28;20053;-77
2022/12/09 13:43:30;;;;;;;28.77;21.48;;;3.20;99.90;;;;;;4975365;28;20074;-77
2022/12/09 13:46:02;;;;;;;28.45;20.90;;;3.10;99.90;;;;;;5007438;28;20042;-78
2022/12/09 13:48:54;;;;;;;28.25;21.02;;;3.10;99.90;;;;;;4990526;28;20568;-78
2022/12/09 13:51:45;;;;;;;29.42;22.08;;;3.10;99.90;;;;;;4993012;28;20116;-78
2022/12/09 13:54:28;;;;;;;26.63;20.80;;;3.10;99.90;;;;;;4974964;28;20033;-77
2022/12/09 13:57:27;;;;;;;27.33;20.92;;;3.10;99.90;;;;;;4978506;28;20046;-78
2022/12/09 14:03:39;;;;;;;25.08;20.38;;;3.00;99.90;;;;;;4987431;28;20050;-78